sensor_id;sensor_type;location;lat;lon;timestamp;pressure;altitude;pressure_sealevel;temperature
28905;BMP280;60848;53.884;11.446;2023-06-19T00:00:32;101175.69;;;21.16
28905;BMP280;60848;53.884;11.446;2023-06-19T00:03:02;101182.06;;;21.06
28905;BMP280;60848;53.884;11.446;2023-06-19T00:05:30;101180.66;;;21.02
28905;BMP280;60848;53.884;11.446;2023-06-19T00:07:59;101185.34;;;20.98
28905;BMP280;60848;53.884;11.446;2023-06-19T00:10:27;101170.75;;;20.90
28905;BMP280;60848;53.884;11.446;2023-06-19T00:12:56;101179.25;;;20.85
28905;BMP280;60848;53.884;11.446;2023-06-19T00:15:26;101173.63;;;20.83
28905;BMP280;60848;53.884;11.446;2023-06-19T00:17:56;101171.81;;;20.80
28905;BMP280;60848;53.884;11.446;2023-06-19T00:20:27;101165.41;;;20.77
28905;BMP280;60848;53.884;11.446;2023-06-19T00:22:55;101163.59;;;20.74
28905;BMP280;60848;53.884;11.446;2023-06-19T00:25:24;101164.47;;;20.71
28905;BMP280;60848;53.884;11.446;2023-06-19T00:27:52;101166.88;;;20.66
28905;BMP280;60848;53.884;11.446;2023-06-19T00:30:20;101174.50;;;20.64
28905;BMP280;60848;53.884;11.446;2023-06-19T00:32:52;101168.50;;;20.63
28905;BMP280;60848;53.884;11.446;2023-06-19T00:35:20;101175.69;;;20.63
28905;BMP280;60848;53.884;11.446;2023-06-19T00:37:50;101168.53;;;20.60
28905;BMP280;60848;53.884;11.446;2023-06-19T00:40:26;101162.56;;;20.56
28905;BMP280;60848;53.884;11.446;2023-06-19T00:42:56;101165.34;;;20.52
28905;BMP280;60848;53.884;11.446;2023-06-19T00:45:24;101159.38;;;20.48
28905;BMP280;60848;53.884;11.446;2023-06-19T00:47:54;101157.16;;;20.47
28905;BMP280;60848;53.884;11.446;2023-06-19T00:50:22;101152.22;;;20.45
28905;BMP280;60848;53.884;11.446;2023-06-19T00:52:53;101153.75;;;20.46
28905;BMP280;60848;53.884;11.446;2023-06-19T00:55:22;101147.66;;;20.46
28905;BMP280;60848;53.884;11.446;2023-06-19T00:57:51;101147.97;;;20.48
28905;BMP280;60848;53.884;11.446;2023-06-19T01:00:24;101151.41;;;20.48
28905;BMP280;60848;53.884;11.446;2023-06-19T01:02:52;101147.56;;;20.49
28905;BMP280;60848;53.884;11.446;2023-06-19T01:05:21;101141.84;;;20.51
28905;BMP280;60848;53.884;11.446;2023-06-19T01:07:52;101141.84;;;20.51
28905;BMP280;60848;53.884;11.446;2023-06-19T01:10:28;101144.19;;;20.49
28905;BMP280;60848;53.884;11.446;2023-06-19T01:13:02;101146.06;;;20.48
28905;BMP280;60848;53.884;11.446;2023-06-19T01:15:31;101134.69;;;20.48
28905;BMP280;60848;53.884;11.446;2023-06-19T01:18:00;101132.03;;;20.48
28905;BMP280;60848;53.884;11.446;2023-06-19T01:20:30;101133.94;;;20.47
28905;BMP280;60848;53.884;11.446;2023-06-19T01:23:07;101128.22;;;20.49
28905;BMP280;60848;53.884;11.446;2023-06-19T01:25:38;101130.47;;;20.50
28905;BMP280;60848;53.884;11.446;2023-06-19T01:28:09;101131.22;;;20.51
28905;BMP280;60848;53.884;11.446;2023-06-19T01:30:40;101132.38;;;20.50
28905;BMP280;60848;53.884;11.446;2023-06-19T01:33:12;101126.31;;;20.49
28905;BMP280;60848;53.884;11.446;2023-06-19T01:35:44;101111.34;;;20.43
28905;BMP280;60848;53.884;11.446;2023-06-19T01:38:15;101117.44;;;20.40
28905;BMP280;60848;53.884;11.446;2023-06-19T01:40:44;101115.34;;;20.35
28905;BMP280;60848;53.884;11.446;2023-06-19T01:43:13;101119.97;;;20.31
28905;BMP280;60848;53.884;11.446;2023-06-19T01:45:43;101107.22;;;20.26
28905;BMP280;60848;53.884;11.446;2023-06-19T01:48:12;101114.84;;;20.24
28905;BMP280;60848;53.884;11.446;2023-06-19T01:50:41;101105.47;;;20.19
28905;BMP280;60848;53.884;11.446;2023-06-19T01:53:14;101099.13;;;20.17
28905;BMP280;60848;53.884;11.446;2023-06-19T01:55:46;101091.97;;;20.14
28905;BMP280;60848;53.884;11.446;2023-06-19T01:58:14;101095.06;;;20.12
28905;BMP280;60848;53.884;11.446;2023-06-19T02:00:42;101084.09;;;20.10
28905;BMP280;60848;53.884;11.446;2023-06-19T02:03:11;101086.09;;;20.06
28905;BMP280;60848;53.884;11.446;2023-06-19T02:05:41;101086.91;;;20.03
28905;BMP280;60848;53.884;11.446;2023-06-19T02:08:10;101090.75;;;20.02
28905;BMP280;60848;53.884;11.446;2023-06-19T02:10:40;101082.47;;;20.00
28905;BMP280;60848;53.884;11.446;2023-06-19T02:13:08;101079.16;;;19.96
28905;BMP280;60848;53.884;11.446;2023-06-19T02:15:37;101078.81;;;19.94
28905;BMP280;60848;53.884;11.446;2023-06-19T02:18:06;101079.66;;;19.91
28905;BMP280;60848;53.884;11.446;2023-06-19T02:20:35;101079.31;;;19.89
28905;BMP280;60848;53.884;11.446;2023-06-19T02:23:03;101070.69;;;19.85
28905;BMP280;60848;53.884;11.446;2023-06-19T02:25:31;101066.63;;;19.81
28905;BMP280;60848;53.884;11.446;2023-06-19T02:28:05;101068.63;;;19.77
28905;BMP280;60848;53.884;11.446;2023-06-19T02:30:36;101059.28;;;19.72
28905;BMP280;60848;53.884;11.446;2023-06-19T02:33:08;101062.00;;;19.69
28905;BMP280;60848;53.884;11.446;2023-06-19T02:35:36;101061.69;;;19.67
28905;BMP280;60848;53.884;11.446;2023-06-19T02:38:07;101061.69;;;19.67
28905;BMP280;60848;53.884;11.446;2023-06-19T02:40:35;101060.94;;;19.66
28905;BMP280;60848;53.884;11.446;2023-06-19T02:43:06;101057.94;;;19.64
28905;BMP280;60848;53.884;11.446;2023-06-19T02:45:36;101062.19;;;19.62
28905;BMP280;60848;53.884;11.446;2023-06-19T02:48:04;101059.19;;;19.60
28905;BMP280;60848;53.884;11.446;2023-06-19T02:50:34;101052.41;;;19.59
28905;BMP280;60848;53.884;11.446;2023-06-19T02:53:02;101066.84;;;19.58
28905;BMP280;60848;53.884;11.446;2023-06-19T02:55:33;101059.28;;;19.56
28905;BMP280;60848;53.884;11.446;2023-06-19T02:58:03;101058.22;;;19.54
28905;BMP280;60848;53.884;11.446;2023-06-19T03:00:33;101056.34;;;19.51
28905;BMP280;60848;53.884;11.446;2023-06-19T03:03:01;101063.66;;;19.47
28905;BMP280;60848;53.884;11.446;2023-06-19T03:05:31;101067.16;;;19.44
28905;BMP280;60848;53.884;11.446;2023-06-19T03:08:00;101069.16;;;19.40
28905;BMP280;60848;53.884;11.446;2023-06-19T03:10:30;101068.41;;;19.39
28905;BMP280;60848;53.884;11.446;2023-06-19T03:12:58;101072.22;;;19.38
28905;BMP280;60848;53.884;11.446;2023-06-19T03:15:27;101074.13;;;19.38
28905;BMP280;60848;53.884;11.446;2023-06-19T03:17:57;101075.28;;;19.37
28905;BMP280;60848;53.884;11.446;2023-06-19T03:20:25;101075.69;;;19.35
28905;BMP280;60848;53.884;11.446;2023-06-19T03:22:57;101070.78;;;19.34
28905;BMP280;60848;53.884;11.446;2023-06-19T03:25:26;101078.44;;;19.32
28905;BMP280;60848;53.884;11.446;2023-06-19T03:28:04;101074.38;;;19.27
28905;BMP280;60848;53.884;11.446;2023-06-19T03:30:34;101072.84;;;19.26
28905;BMP280;60848;53.884;11.446;2023-06-19T03:33:04;101075.19;;;19.24
28905;BMP280;60848;53.884;11.446;2023-06-19T03:35:39;101075.19;;;19.24
28905;BMP280;60848;53.884;11.446;2023-06-19T03:38:16;101067.97;;;19.25
28905;BMP280;60848;53.884;11.446;2023-06-19T03:40:48;101068.31;;;19.27
28905;BMP280;60848;53.884;11.446;2023-06-19T03:43:17;101068.63;;;19.29
28905;BMP280;60848;53.884;11.446;2023-06-19T03:45:45;101077.28;;;19.33
28905;BMP280;60848;53.884;11.446;2023-06-19T03:48:17;101060.19;;;19.34
28905;BMP280;60848;53.884;11.446;2023-06-19T03:50:45;101067.38;;;19.33
28905;BMP280;60848;53.884;11.446;2023-06-19T03:53:14;101060.94;;;19.34
28905;BMP280;60848;53.884;11.446;2023-06-19T03:55:42;101065.09;;;19.35
28905;BMP280;60848;53.884;11.446;2023-06-19T03:58:12;101058.34;;;19.31
28905;BMP280;60848;53.884;11.446;2023-06-19T04:00:41;101056.06;;;19.33
28905;BMP280;60848;53.884;11.446;2023-06-19T04:03:11;101059.44;;;19.33
28905;BMP280;60848;53.884;11.446;2023-06-19T04:05:41;101057.69;;;19.43
28905;BMP280;60848;53.884;11.446;2023-06-19T04:08:11;101055.97;;;19.52
28905;BMP280;60848;53.884;11.446;2023-06-19T04:10:43;101058.78;;;19.61
28905;BMP280;60848;53.884;11.446;2023-06-19T04:13:11;101057.44;;;19.69
28905;BMP280;60848;53.884;11.446;2023-06-19T04:15:40;101065.41;;;19.69
28905;BMP280;60848;53.884;11.446;2023-06-19T04:18:13;101062.00;;;19.69
28905;BMP280;60848;53.884;11.446;2023-06-19T04:20:43;101067.75;;;19.67
28905;BMP280;60848;53.884;11.446;2023-06-19T04:23:12;101061.69;;;19.67
28905;BMP280;60848;53.884;11.446;2023-06-19T04:25:41;101059.84;;;19.64
28905;BMP280;60848;53.884;11.446;2023-06-19T04:28:11;101057.19;;;19.64
28905;BMP280;60848;53.884;11.446;2023-06-19T04:30:39;101059.09;;;19.63
28905;BMP280;60848;53.884;11.446;2023-06-19T04:33:07;101053.00;;;19.66
28905;BMP280;60848;53.884;11.446;2023-06-19T04:35:36;101058.94;;;19.70
28905;BMP280;60848;53.884;11.446;2023-06-19T04:38:09;101060.84;;;19.70
28905;BMP280;60848;53.884;11.446;2023-06-19T04:40:40;101059.19;;;19.76
28905;BMP280;60848;53.884;11.446;2023-06-19T04:43:10;101054.97;;;19.78
28905;BMP280;60848;53.884;11.446;2023-06-19T04:45:42;101058.00;;;19.77
28905;BMP280;60848;53.884;11.446;2023-06-19T04:48:12;101060.34;;;19.75
28905;BMP280;60848;53.884;11.446;2023-06-19T04:50:41;101048.13;;;19.77
28905;BMP280;60848;53.884;11.446;2023-06-19T04:53:11;101056.44;;;19.79
28905;BMP280;60848;53.884;11.446;2023-06-19T04:55:43;101048.47;;;19.79
28905;BMP280;60848;53.884;11.446;2023-06-19T04:58:12;101062.06;;;19.81
28905;BMP280;60848;53.884;11.446;2023-06-19T05:00:40;101055.63;;;19.82
28905;BMP280;60848;53.884;11.446;2023-06-19T05:03:08;101057.00;;;19.87
28905;BMP280;60848;53.884;11.446;2023-06-19T05:05:40;101052.75;;;19.89
28905;BMP280;60848;53.884;11.446;2023-06-19T05:08:13;101053.41;;;19.93
28905;BMP280;60848;53.884;11.446;2023-06-19T05:10:42;101058.22;;;19.98
28905;BMP280;60848;53.884;11.446;2023-06-19T05:13:12;101054.03;;;20.01
28905;BMP280;60848;53.884;11.446;2023-06-19T05:15:41;101052.41;;;20.03
28905;BMP280;60848;53.884;11.446;2023-06-19T05:18:09;101059.53;;;20.06
28905;BMP280;60848;53.884;11.446;2023-06-19T05:20:38;101050.75;;;20.09
28905;BMP280;60848;53.884;11.446;2023-06-19T05:23:08;101046.84;;;20.14
28905;BMP280;60848;53.884;11.446;2023-06-19T05:25:38;101041.00;;;20.19
28905;BMP280;60848;53.884;11.446;2023-06-19T05:28:06;101036.25;;;20.26
28905;BMP280;60848;53.884;11.446;2023-06-19T05:30:35;101041.44;;;20.30
28905;BMP280;60848;53.884;11.446;2023-06-19T05:33:03;101038.34;;;20.31
28905;BMP280;60848;53.884;11.446;2023-06-19T05:35:32;101051.97;;;20.33
28905;BMP280;60848;53.884;11.446;2023-06-19T05:38:00;101052.28;;;20.35
28905;BMP280;60848;53.884;11.446;2023-06-19T05:40:28;101049.97;;;20.37
28905;BMP280;60848;53.884;11.446;2023-06-19T05:42:59;101051.13;;;20.36
28905;BMP280;60848;53.884;11.446;2023-06-19T05:45:27;101042.00;;;20.37
28905;BMP280;60848;53.884;11.446;2023-06-19T05:47:56;101048.06;;;20.38
28905;BMP280;60848;53.884;11.446;2023-06-19T05:50:24;101037.00;;;20.39
28905;BMP280;60848;53.884;11.446;2023-06-19T05:52:53;101035.09;;;20.40
28905;BMP280;60848;53.884;11.446;2023-06-19T05:55:23;101040.72;;;20.42
28905;BMP280;60848;53.884;11.446;2023-06-19T05:57:55;101041.50;;;20.42
28905;BMP280;60848;53.884;11.446;2023-06-19T06:00:24;101047.88;;;20.45
28905;BMP280;60848;53.884;11.446;2023-06-19T06:02:53;101056.19;;;20.47
28905;BMP280;60848;53.884;11.446;2023-06-19T06:05:22;101066.03;;;20.46
28905;BMP280;60848;53.884;11.446;2023-06-19T06:07:51;101067.19;;;20.45
28905;BMP280;60848;53.884;11.446;2023-06-19T06:10:20;101065.59;;;20.48
28905;BMP280;60848;53.884;11.446;2023-06-19T06:12:49;101070.81;;;20.51
28905;BMP280;60848;53.884;11.446;2023-06-19T06:15:18;101069.66;;;20.52
28905;BMP280;60848;53.884;11.446;2023-06-19T06:17:48;101066.19;;;20.55
28905;BMP280;60848;53.884;11.446;2023-06-19T06:20:16;101058.91;;;20.56
28905;BMP280;60848;53.884;11.446;2023-06-19T06:22:45;101055.56;;;20.55
28905;BMP280;60848;53.884;11.446;2023-06-19T06:25:14;101067.97;;;20.58
28905;BMP280;60848;53.884;11.446;2023-06-19T06:27:43;101073.19;;;20.62
28905;BMP280;60848;53.884;11.446;2023-06-19T06:30:12;101075.50;;;20.60
28905;BMP280;60848;53.884;11.446;2023-06-19T06:32:44;101076.28;;;20.60
28905;BMP280;60848;53.884;11.446;2023-06-19T06:35:14;101075.47;;;20.63
28905;BMP280;60848;53.884;11.446;2023-06-19T06:37:43;101075.47;;;20.63
28905;BMP280;60848;53.884;11.446;2023-06-19T06:40:13;101071.59;;;20.64
28905;BMP280;60848;53.884;11.446;2023-06-19T06:42:42;101065.53;;;20.64
28905;BMP280;60848;53.884;11.446;2023-06-19T06:45:10;101068.94;;;20.64
28905;BMP280;60848;53.884;11.446;2023-06-19T06:47:41;101078.81;;;20.64
28905;BMP280;60848;53.884;11.446;2023-06-19T06:50:13;101073.50;;;20.64
28905;BMP280;60848;53.884;11.446;2023-06-19T06:52:44;101078.13;;;20.63
28905;BMP280;60848;53.884;11.446;2023-06-19T06:55:15;101082.22;;;20.64
28905;BMP280;60848;53.884;11.446;2023-06-19T06:57:43;101078.50;;;20.62
28905;BMP280;60848;53.884;11.446;2023-06-19T07:00:12;101084.13;;;20.64
28905;BMP280;60848;53.884;11.446;2023-06-19T07:02:41;101089.13;;;20.62
28905;BMP280;60848;53.884;11.446;2023-06-19T07:05:13;101099.38;;;20.63
28905;BMP280;60848;53.884;11.446;2023-06-19T07:07:42;101094.75;;;20.64
28905;BMP280;60848;53.884;11.446;2023-06-19T07:10:10;101091.41;;;20.63
28905;BMP280;60848;53.884;11.446;2023-06-19T07:12:45;101088.63;;;20.67
28905;BMP280;60848;53.884;11.446;2023-06-19T07:15:14;101096.16;;;20.68
28905;BMP280;60848;53.884;11.446;2023-06-19T07:17:43;101096.91;;;20.69
28905;BMP280;60848;53.884;11.446;2023-06-19T07:20:14;101095.41;;;20.68
28905;BMP280;60848;53.884;11.446;2023-06-19T07:22:43;101093.50;;;20.68
28905;BMP280;60848;53.884;11.446;2023-06-19T07:25:11;101085.53;;;20.68
28905;BMP280;60848;53.884;11.446;2023-06-19T07:27:40;101081.41;;;20.67
28905;BMP280;60848;53.884;11.446;2023-06-19T07:30:09;101085.09;;;20.70
28905;BMP280;60848;53.884;11.446;2023-06-19T07:32:41;101084.72;;;20.71
28905;BMP280;60848;53.884;11.446;2023-06-19T07:35:10;101086.16;;;20.72
28905;BMP280;60848;53.884;11.446;2023-06-19T07:37:40;101091.47;;;20.72
28905;BMP280;60848;53.884;11.446;2023-06-19T07:40:10;101088.03;;;20.75
28905;BMP280;60848;53.884;11.446;2023-06-19T07:42:39;101090.22;;;20.77
28905;BMP280;60848;53.884;11.446;2023-06-19T07:45:12;101081.41;;;20.80
28905;BMP280;60848;53.884;11.446;2023-06-19T07:47:42;101070.34;;;20.81
28905;BMP280;60848;53.884;11.446;2023-06-19T07:50:11;101068.75;;;20.84
28905;BMP280;60848;53.884;11.446;2023-06-19T07:52:41;101076.19;;;20.89
28905;BMP280;60848;53.884;11.446;2023-06-19T07:55:10;101065.78;;;20.94
28905;BMP280;60848;53.884;11.446;2023-06-19T07:57:38;101065.56;;;21.01
28905;BMP280;60848;53.884;11.446;2023-06-19T08:00:08;101064.28;;;21.06
28905;BMP280;60848;53.884;11.446;2023-06-19T08:02:41;101067.06;;;21.15
28905;BMP280;60848;53.884;11.446;2023-06-19T08:05:10;101071.75;;;21.23
28905;BMP280;60848;53.884;11.446;2023-06-19T08:07:40;101069.59;;;21.31
28905;BMP280;60848;53.884;11.446;2023-06-19T08:10:09;101068.81;;;21.43
28905;BMP280;60848;53.884;11.446;2023-06-19T08:12:41;101066.97;;;21.52
28905;BMP280;60848;53.884;11.446;2023-06-19T08:15:10;101072.63;;;21.54
28905;BMP280;60848;53.884;11.446;2023-06-19T08:17:38;101064.28;;;21.65
28905;BMP280;60848;53.884;11.446;2023-06-19T08:20:09;101059.16;;;21.70
28905;BMP280;60848;53.884;11.446;2023-06-19T08:22:38;101058.19;;;21.77
28905;BMP280;60848;53.884;11.446;2023-06-19T08:25:08;101052.31;;;21.82
28905;BMP280;60848;53.884;11.446;2023-06-19T08:27:37;101068.47;;;21.87
28905;BMP280;60848;53.884;11.446;2023-06-19T08:30:09;101064.50;;;21.92
28905;BMP280;60848;53.884;11.446;2023-06-19T08:32:38;101068.84;;;21.98
28905;BMP280;60848;53.884;11.446;2023-06-19T08:35:07;101059.25;;;22.01
28905;BMP280;60848;53.884;11.446;2023-06-19T08:37:36;101059.88;;;22.05
28905;BMP280;60848;53.884;11.446;2023-06-19T08:40:05;101051.16;;;22.04
28905;BMP280;60848;53.884;11.446;2023-06-19T08:42:40;101043.78;;;22.08
28905;BMP280;60848;53.884;11.446;2023-06-19T08:45:10;101037.03;;;22.16
28905;BMP280;60848;53.884;11.446;2023-06-19T08:47:42;101030.47;;;22.17
28905;BMP280;60848;53.884;11.446;2023-06-19T08:50:11;101033.75;;;22.21
28905;BMP280;60848;53.884;11.446;2023-06-19T08:52:39;101033.03;;;22.21
28905;BMP280;60848;53.884;11.446;2023-06-19T08:55:08;101025.47;;;22.19
28905;BMP280;60848;53.884;11.446;2023-06-19T08:57:38;101038.66;;;22.23
28905;BMP280;60848;53.884;11.446;2023-06-19T09:00:09;101032.59;;;22.22
28905;BMP280;60848;53.884;11.446;2023-06-19T09:02:40;101041.50;;;22.28
28905;BMP280;60848;53.884;11.446;2023-06-19T09:05:14;101038.28;;;22.33
28905;BMP280;60848;53.884;11.446;2023-06-19T09:07:43;101041.88;;;22.39
28905;BMP280;60848;53.884;11.446;2023-06-19T09:10:14;101043.97;;;22.44
28905;BMP280;60848;53.884;11.446;2023-06-19T09:12:56;101050.22;;;22.50
28905;BMP280;60848;53.884;11.446;2023-06-19T09:15:29;101050.53;;;22.52
28905;BMP280;60848;53.884;11.446;2023-06-19T09:18:03;101057.50;;;22.59
28905;BMP280;60848;53.884;11.446;2023-06-19T09:20:37;101057.38;;;22.62
28905;BMP280;60848;53.884;11.446;2023-06-19T09:23:09;101056.78;;;22.67
28905;BMP280;60848;53.884;11.446;2023-06-19T09:25:45;101056.25;;;22.72
28905;BMP280;60848;53.884;11.446;2023-06-19T09:28:19;101051.38;;;22.80
28905;BMP280;60848;53.884;11.446;2023-06-19T09:30:58;101043.97;;;22.84
28905;BMP280;60848;53.884;11.446;2023-06-19T09:33:28;101043.22;;;22.83
28905;BMP280;60848;53.884;11.446;2023-06-19T09:35:57;101038.31;;;22.82
28905;BMP280;60848;53.884;11.446;2023-06-19T09:38:27;101042.50;;;22.83
28905;BMP280;60848;53.884;11.446;2023-06-19T09:40:58;101044.25;;;22.86
28905;BMP280;60848;53.884;11.446;2023-06-19T09:43:34;101054.38;;;22.91
28905;BMP280;60848;53.884;11.446;2023-06-19T09:46:06;101042.81;;;22.94
28905;BMP280;60848;53.884;11.446;2023-06-19T09:48:41;101039.59;;;22.99
28905;BMP280;60848;53.884;11.446;2023-06-19T09:51:16;101038.97;;;23.04
28905;BMP280;60848;53.884;11.446;2023-06-19T09:53:45;101033.38;;;23.11
28905;BMP280;60848;53.884;11.446;2023-06-19T09:56:14;101036.34;;;23.13
28905;BMP280;60848;53.884;11.446;2023-06-19T09:58:43;101038.00;;;23.19
28905;BMP280;60848;53.884;11.446;2023-06-19T10:01:14;101035.00;;;23.26
28905;BMP280;60848;53.884;11.446;2023-06-19T10:03:45;101033.38;;;23.29
28905;BMP280;60848;53.884;11.446;2023-06-19T10:06:15;101027.88;;;23.32
28905;BMP280;60848;53.884;11.446;2023-06-19T10:08:44;101023.00;;;23.40
28905;BMP280;60848;53.884;11.446;2023-06-19T10:11:13;101037.25;;;23.46
28905;BMP280;60848;53.884;11.446;2023-06-19T10:13:42;101030.88;;;23.52
28905;BMP280;60848;53.884;11.446;2023-06-19T10:16:21;101025.38;;;23.56
28905;BMP280;60848;53.884;11.446;2023-06-19T10:18:50;101032.34;;;23.63
28905;BMP280;60848;53.884;11.446;2023-06-19T10:21:22;101014.25;;;23.67
28905;BMP280;60848;53.884;11.446;2023-06-19T10:23:54;101024.03;;;23.70
28905;BMP280;60848;53.884;11.446;2023-06-19T10:26:30;101020.78;;;23.75
28905;BMP280;60848;53.884;11.446;2023-06-19T10:29:06;101016.44;;;23.86
28905;BMP280;60848;53.884;11.446;2023-06-19T10:31:42;101013.28;;;24.06
28905;BMP280;60848;53.884;11.446;2023-06-19T10:34:14;101007.72;;;24.27
28905;BMP280;60848;53.884;11.446;2023-06-19T10:36:43;101014.75;;;24.48
28905;BMP280;60848;53.884;11.446;2023-06-19T10:39:11;101015.84;;;24.65
28905;BMP280;60848;53.884;11.446;2023-06-19T10:41:41;101014.09;;;24.86
28905;BMP280;60848;53.884;11.446;2023-06-19T10:44:09;101017.13;;;25.17
28905;BMP280;60848;53.884;11.446;2023-06-19T10:46:40;101007.75;;;25.36
28905;BMP280;60848;53.884;11.446;2023-06-19T10:49:12;101004.78;;;25.48
28905;BMP280;60848;53.884;11.446;2023-06-19T10:51:41;101001.56;;;25.59
28905;BMP280;60848;53.884;11.446;2023-06-19T10:54:11;101002.31;;;25.74
28905;BMP280;60848;53.884;11.446;2023-06-19T10:56:39;100998.97;;;25.93
28905;BMP280;60848;53.884;11.446;2023-06-19T10:59:09;100996.72;;;26.06
28905;BMP280;60848;53.884;11.446;2023-06-19T11:01:39;100991.91;;;26.10
28905;BMP280;60848;53.884;11.446;2023-06-19T11:04:09;100984.41;;;26.14
28905;BMP280;60848;53.884;11.446;2023-06-19T11:06:40;100985.63;;;26.13
28905;BMP280;60848;53.884;11.446;2023-06-19T11:09:12;100985.41;;;26.17
28905;BMP280;60848;53.884;11.446;2023-06-19T11:11:42;100997.59;;;26.18
28905;BMP280;60848;53.884;11.446;2023-06-19T11:14:11;100996.75;;;26.26
28905;BMP280;60848;53.884;11.446;2023-06-19T11:16:42;100992.22;;;26.32
28905;BMP280;60848;53.884;11.446;2023-06-19T11:19:14;100989.13;;;26.39
28905;BMP280;60848;53.884;11.446;2023-06-19T11:21:47;100986.59;;;26.50
28905;BMP280;60848;53.884;11.446;2023-06-19T11:24:16;100979.81;;;26.55
28905;BMP280;60848;53.884;11.446;2023-06-19T11:26:47;100982.09;;;26.62
28905;BMP280;60848;53.884;11.446;2023-06-19T11:29:20;100992.22;;;26.72
28905;BMP280;60848;53.884;11.446;2023-06-19T11:31:49;100997.19;;;26.79
28905;BMP280;60848;53.884;11.446;2023-06-19T11:34:18;100982.41;;;26.89
28905;BMP280;60848;53.884;11.446;2023-06-19T11:36:54;100978.56;;;26.96
28905;BMP280;60848;53.884;11.446;2023-06-19T11:39:23;100981.31;;;27.01
28905;BMP280;60848;53.884;11.446;2023-06-19T11:41:51;100970.31;;;26.99
28905;BMP280;60848;53.884;11.446;2023-06-19T11:44:21;100976.16;;;26.98
28905;BMP280;60848;53.884;11.446;2023-06-19T11:46:50;100977.44;;;27.02
28905;BMP280;60848;53.884;11.446;2023-06-19T11:49:19;100972.63;;;27.12
28905;BMP280;60848;53.884;11.446;2023-06-19T11:51:47;100963.16;;;27.16
28905;BMP280;60848;53.884;11.446;2023-06-19T11:54:17;100973.41;;;27.18
28905;BMP280;60848;53.884;11.446;2023-06-19T11:56:46;100981.97;;;27.22
28905;BMP280;60848;53.884;11.446;2023-06-19T11:59:15;100970.53;;;27.21
28905;BMP280;60848;53.884;11.446;2023-06-19T12:01:44;100960.63;;;27.33
28905;BMP280;60848;53.884;11.446;2023-06-19T12:04:12;100967.03;;;27.41
28905;BMP280;60848;53.884;11.446;2023-06-19T12:06:42;100958.91;;;27.35
28905;BMP280;60848;53.884;11.446;2023-06-19T12:09:10;100968.44;;;27.31
28905;BMP280;60848;53.884;11.446;2023-06-19T12:11:43;100970.41;;;27.36
28905;BMP280;60848;53.884;11.446;2023-06-19T12:14:14;100962.91;;;27.45
28905;BMP280;60848;53.884;11.446;2023-06-19T12:16:42;100966.84;;;27.49
28905;BMP280;60848;53.884;11.446;2023-06-19T12:19:11;100979.84;;;27.57
28905;BMP280;60848;53.884;11.446;2023-06-19T12:21:46;100958.59;;;27.58
28905;BMP280;60848;53.884;11.446;2023-06-19T12:24:15;100960.56;;;27.58
28905;BMP280;60848;53.884;11.446;2023-06-19T12:26:45;100958.38;;;27.62
28905;BMP280;60848;53.884;11.446;2023-06-19T12:29:13;100957.63;;;27.61
28905;BMP280;60848;53.884;11.446;2023-06-19T12:31:43;100960.44;;;27.73
28905;BMP280;60848;53.884;11.446;2023-06-19T12:34:11;100951.19;;;27.79
28905;BMP280;60848;53.884;11.446;2023-06-19T12:36:57;100954.44;;;27.94
28905;BMP280;60848;53.884;11.446;2023-06-19T12:39:25;100955.69;;;27.98
28905;BMP280;60848;53.884;11.446;2023-06-19T12:41:58;100952.34;;;28.09
28905;BMP280;60848;53.884;11.446;2023-06-19T12:44:27;100947.47;;;28.18
28905;BMP280;60848;53.884;11.446;2023-06-19T12:46:55;100944.09;;;28.29
28905;BMP280;60848;53.884;11.446;2023-06-19T12:49:25;100948.75;;;28.34
28905;BMP280;60848;53.884;11.446;2023-06-19T12:51:54;100936.78;;;28.40
28905;BMP280;60848;53.884;11.446;2023-06-19T12:54:22;100939.47;;;28.46
28905;BMP280;60848;53.884;11.446;2023-06-19T12:56:50;100946.88;;;28.56
28905;BMP280;60848;53.884;11.446;2023-06-19T12:59:20;100936.59;;;28.60
28905;BMP280;60848;53.884;11.446;2023-06-19T13:01:49;100937.59;;;28.74
28905;BMP280;60848;53.884;11.446;2023-06-19T13:04:17;100938.59;;;28.76
28905;BMP280;60848;53.884;11.446;2023-06-19T13:06:46;100928.56;;;28.82
28905;BMP280;60848;53.884;11.446;2023-06-19T13:09:14;100926.09;;;28.84
28905;BMP280;60848;53.884;11.446;2023-06-19T13:11:43;100934.19;;;28.95
28905;BMP280;60848;53.884;11.446;2023-06-19T13:14:12;100938.59;;;28.98
28905;BMP280;60848;53.884;11.446;2023-06-19T13:16:45;100928.81;;;29.01
28905;BMP280;60848;53.884;11.446;2023-06-19T13:19:14;100921.22;;;28.99
28905;BMP280;60848;53.884;11.446;2023-06-19T13:21:44;100925.41;;;29.06
28905;BMP280;60848;53.884;11.446;2023-06-19T13:24:12;100917.78;;;29.15
28905;BMP280;60848;53.884;11.446;2023-06-19T13:26:42;100929.28;;;29.21
28905;BMP280;60848;53.884;11.446;2023-06-19T13:29:12;100920.22;;;29.30
28905;BMP280;60848;53.884;11.446;2023-06-19T13:31:41;100923.19;;;29.32
28905;BMP280;60848;53.884;11.446;2023-06-19T13:34:11;100921.91;;;29.38
28905;BMP280;60848;53.884;11.446;2023-06-19T13:36:41;100925.31;;;29.44
28905;BMP280;60848;53.884;11.446;2023-06-19T13:39:10;100914.56;;;29.50
28905;BMP280;60848;53.884;11.446;2023-06-19T13:41:39;100911.38;;;29.51
28905;BMP280;60848;53.884;11.446;2023-06-19T13:44:08;100916.75;;;29.57
28905;BMP280;60848;53.884;11.446;2023-06-19T13:46:37;100914.81;;;29.52
28905;BMP280;60848;53.884;11.446;2023-06-19T13:49:05;100907.69;;;29.49
28905;BMP280;60848;53.884;11.446;2023-06-19T13:51:36;100912.56;;;29.50
28905;BMP280;60848;53.884;11.446;2023-06-19T13:54:05;100913.56;;;29.53
28905;BMP280;60848;53.884;11.446;2023-06-19T13:56:33;100915.28;;;29.56
28905;BMP280;60848;53.884;11.446;2023-06-19T13:59:02;100910.88;;;29.58